sensor_id;sensor_type;location;lat;lon;timestamp;temperature;humidity
15834;DHT22;8017;50.812;4.934;2023-05-10T00:01:22;13.10;99.90
15834;DHT22;8017;50.812;4.934;2023-05-10T00:04:24;13.00;99.90
15834;DHT22;8017;50.812;4.934;2023-05-10T00:07:28;12.90;99.90
15834;DHT22;8017;50.812;4.934;2023-05-10T00:10:30;12.80;99.90
15834;DHT22;8017;50.812;4.934;2023-05-10T00:13:33;12.80;99.90
15834;DHT22;8017;50.812;4.934;2023-05-10T00:16:35;12.80;99.90
15834;DHT22;8017;50.812;4.934;2023-05-10T00:19:37;12.80;99.90
15834;DHT22;8017;50.812;4.934;2023-05-10T00:22:39;12.80;99.90
15834;DHT22;8017;50.812;4.934;2023-05-10T00:25:41;12.90;99.90
15834;DHT22;8017;50.812;4.934;2023-05-10T00:28:44;13.00;99.90
15834;DHT22;8017;50.812;4.934;2023-05-10T00:31:46;13.00;99.90
15834;DHT22;8017;50.812;4.934;2023-05-10T00:34:48;13.10;99.90
15834;DHT22;8017;50.812;4.934;2023-05-10T00:37:51;13.20;99.90
15834;DHT22;8017;50.812;4.934;2023-05-10T00:40:53;13.30;99.90
15834;DHT22;8017;50.812;4.934;2023-05-10T00:43:57;13.30;99.90
15834;DHT22;8017;50.812;4.934;2023-05-10T00:46:59;13.20;99.90
15834;DHT22;8017;50.812;4.934;2023-05-10T00:50:01;13.30;99.90
15834;DHT22;8017;50.812;4.934;2023-05-10T00:53:03;13.20;99.90
15834;DHT22;8017;50.812;4.934;2023-05-10T00:56:06;13.20;99.90
15834;DHT22;8017;50.812;4.934;2023-05-10T00:59:09;13.20;99.90
15834;DHT22;8017;50.812;4.934;2023-05-10T01:02:11;13.20;99.90
15834;DHT22;8017;50.812;4.934;2023-05-10T01:05:13;13.20;99.90
15834;DHT22;8017;50.812;4.934;2023-05-10T01:08:15;13.20;99.90
15834;DHT22;8017;50.812;4.934;2023-05-10T01:11:17;13.10;99.90
15834;DHT22;8017;50.812;4.934;2023-05-10T01:14:21;13.10;99.90
15834;DHT22;8017;50.812;4.934;2023-05-10T01:17:24;13.10;99.90
15834;DHT22;8017;50.812;4.934;2023-05-10T01:20:27;13.10;99.90
15834;DHT22;8017;50.812;4.934;2023-05-10T01:23:41;13.20;99.90
15834;DHT22;8017;50.812;4.934;2023-05-10T01:30:50;13.20;99.90
15834;DHT22;8017;50.812;4.934;2023-05-10T01:34:02;13.20;99.90
15834;DHT22;8017;50.812;4.934;2023-05-10T01:37:12;13.20;99.90
15834;DHT22;8017;50.812;4.934;2023-05-10T01:40:19;13.30;99.90
15834;DHT22;8017;50.812;4.934;2023-05-10T01:43:28;13.30;99.90
15834;DHT22;8017;50.812;4.934;2023-05-10T01:46:34;13.30;99.90
15834;DHT22;8017;50.812;4.934;2023-05-10T01:49:41;13.30;99.90
15834;DHT22;8017;50.812;4.934;2023-05-10T01:52:55;13.30;99.90
15834;DHT22;8017;50.812;4.934;2023-05-10T01:55:59;13.30;99.90
15834;DHT22;8017;50.812;4.934;2023-05-10T01:59:06;13.30;99.90
15834;DHT22;8017;50.812;4.934;2023-05-10T02:02:10;13.30;99.90
15834;DHT22;8017;50.812;4.934;2023-05-10T02:05:16;13.30;99.90
15834;DHT22;8017;50.812;4.934;2023-05-10T02:08:19;13.30;99.90
15834;DHT22;8017;50.812;4.934;2023-05-10T02:11:23;13.30;99.90
15834;DHT22;8017;50.812;4.934;2023-05-10T02:14:27;13.30;99.90
15834;DHT22;8017;50.812;4.934;2023-05-10T02:17:29;13.30;99.90
15834;DHT22;8017;50.812;4.934;2023-05-10T02:20:34;13.20;99.90
15834;DHT22;8017;50.812;4.934;2023-05-10T02:23:36;13.20;99.90
15834;DHT22;8017;50.812;4.934;2023-05-10T02:26:39;13.30;99.90
15834;DHT22;8017;50.812;4.934;2023-05-10T02:29:42;13.30;99.90
15834;DHT22;8017;50.812;4.934;2023-05-10T02:32:45;13.20;99.90
15834;DHT22;8017;50.812;4.934;2023-05-10T02:35:50;13.20;99.90
15834;DHT22;8017;50.812;4.934;2023-05-10T02:38:53;13.30;99.90
15834;DHT22;8017;50.812;4.934;2023-05-10T02:41:56;13.30;99.90
15834;DHT22;8017;50.812;4.934;2023-05-10T02:45:01;13.30;99.90
15834;DHT22;8017;50.812;4.934;2023-05-10T02:48:03;13.30;99.90
15834;DHT22;8017;50.812;4.934;2023-05-10T02:51:07;13.30;99.90
15834;DHT22;8017;50.812;4.934;2023-05-10T02:54:12;13.30;99.90
15834;DHT22;8017;50.812;4.934;2023-05-10T02:57:16;13.30;99.90
15834;DHT22;8017;50.812;4.934;2023-05-10T03:00:19;13.40;99.90
15834;DHT22;8017;50.812;4.934;2023-05-10T03:03:21;13.30;99.90
15834;DHT22;8017;50.812;4.934;2023-05-10T03:06:25;13.30;99.90
15834;DHT22;8017;50.812;4.934;2023-05-10T03:09:27;13.30;99.90
15834;DHT22;8017;50.812;4.934;2023-05-10T03:12:38;13.30;99.90
15834;DHT22;8017;50.812;4.934;2023-05-10T03:15:53;13.30;99.90
15834;DHT22;8017;50.812;4.934;2023-05-10T03:19:06;13.40;99.90
15834;DHT22;8017;50.812;4.934;2023-05-10T03:22:10;13.40;99.90
15834;DHT22;8017;50.812;4.934;2023-05-10T03:25:16;13.30;99.90
15834;DHT22;8017;50.812;4.934;2023-05-10T03:28:19;13.30;99.90
15834;DHT22;8017;50.812;4.934;2023-05-10T03:31:22;13.20;99.90
15834;DHT22;8017;50.812;4.934;2023-05-10T03:34:24;13.20;99.90
15834;DHT22;8017;50.812;4.934;2023-05-10T03:37:27;13.20;99.90
15834;DHT22;8017;50.812;4.934;2023-05-10T03:40:29;13.20;99.90
15834;DHT22;8017;50.812;4.934;2023-05-10T03:43:32;13.30;99.90
15834;DHT22;8017;50.812;4.934;2023-05-10T03:46:34;13.30;99.90
15834;DHT22;8017;50.812;4.934;2023-05-10T03:49:36;13.30;99.90
15834;DHT22;8017;50.812;4.934;2023-05-10T03:52:39;13.20;99.90
15834;DHT22;8017;50.812;4.934;2023-05-10T03:55:41;13.20;99.90
15834;DHT22;8017;50.812;4.934;2023-05-10T03:58:43;13.20;99.90
15834;DHT22;8017;50.812;4.934;2023-05-10T04:01:45;13.20;99.90
15834;DHT22;8017;50.812;4.934;2023-05-10T04:04:47;13.10;99.90
15834;DHT22;8017;50.812;4.934;2023-05-10T04:07:51;13.10;99.90
15834;DHT22;8017;50.812;4.934;2023-05-10T04:10:53;13.10;99.90
15834;DHT22;8017;50.812;4.934;2023-05-10T04:13:55;13.10;99.90
15834;DHT22;8017;50.812;4.934;2023-05-10T04:16:57;13.10;99.90
15834;DHT22;8017;50.812;4.934;2023-05-10T04:19:59;13.00;99.90
15834;DHT22;8017;50.812;4.934;2023-05-10T04:23:02;13.00;99.90
15834;DHT22;8017;50.812;4.934;2023-05-10T04:26:04;13.00;99.90
15834;DHT22;8017;50.812;4.934;2023-05-10T04:29:06;13.00;99.90
15834;DHT22;8017;50.812;4.934;2023-05-10T04:32:08;13.00;99.90
15834;DHT22;8017;50.812;4.934;2023-05-10T04:35:10;13.00;99.90
15834;DHT22;8017;50.812;4.934;2023-05-10T04:38:14;13.00;99.90
15834;DHT22;8017;50.812;4.934;2023-05-10T04:41:15;12.90;99.90
15834;DHT22;8017;50.812;4.934;2023-05-10T04:44:17;13.00;99.90
15834;DHT22;8017;50.812;4.934;2023-05-10T04:47:19;13.00;99.90
15834;DHT22;8017;50.812;4.934;2023-05-10T04:50:21;13.10;99.90
15834;DHT22;8017;50.812;4.934;2023-05-10T04:53:25;13.10;99.90
15834;DHT22;8017;50.812;4.934;2023-05-10T04:56:27;13.20;99.90
15834;DHT22;8017;50.812;4.934;2023-05-10T04:59:29;13.20;99.90
15834;DHT22;8017;50.812;4.934;2023-05-10T05:02:31;13.00;99.90
15834;DHT22;8017;50.812;4.934;2023-05-10T05:05:33;13.00;99.90
15834;DHT22;8017;50.812;4.934;2023-05-10T05:08:36;13.00;99.90
15834;DHT22;8017;50.812;4.934;2023-05-10T05:11:38;13.00;99.90
15834;DHT22;8017;50.812;4.934;2023-05-10T05:14:40;13.10;99.90
15834;DHT22;8017;50.812;4.934;2023-05-10T05:17:42;13.20;99.90
15834;DHT22;8017;50.812;4.934;2023-05-10T05:20:44;13.20;99.90
15834;DHT22;8017;50.812;4.934;2023-05-10T05:23:48;13.20;99.90
15834;DHT22;8017;50.812;4.934;2023-05-10T05:26:50;13.10;99.90
15834;DHT22;8017;50.812;4.934;2023-05-10T05:29:52;13.20;99.90
15834;DHT22;8017;50.812;4.934;2023-05-10T05:32:54;13.20;99.90
15834;DHT22;8017;50.812;4.934;2023-05-10T05:35:57;13.20;99.90
15834;DHT22;8017;50.812;4.934;2023-05-10T05:39:00;13.20;99.90
15834;DHT22;8017;50.812;4.934;2023-05-10T05:42:02;13.20;99.90
15834;DHT22;8017;50.812;4.934;2023-05-10T05:45:05;13.20;99.90
15834;DHT22;8017;50.812;4.934;2023-05-10T05:48:07;13.30;99.90
15834;DHT22;8017;50.812;4.934;2023-05-10T05:51:09;13.30;99.90
15834;DHT22;8017;50.812;4.934;2023-05-10T05:54:12;13.30;99.90
15834;DHT22;8017;50.812;4.934;2023-05-10T05:57:14;13.40;99.90
15834;DHT22;8017;50.812;4.934;2023-05-10T06:00:16;13.50;99.90
15834;DHT22;8017;50.812;4.934;2023-05-10T06:03:19;13.60;99.90
15834;DHT22;8017;50.812;4.934;2023-05-10T06:06:21;13.70;99.90
15834;DHT22;8017;50.812;4.934;2023-05-10T06:09:24;13.70;99.90
15834;DHT22;8017;50.812;4.934;2023-05-10T06:12:26;13.70;99.90
15834;DHT22;8017;50.812;4.934;2023-05-10T06:15:28;13.80;99.90
15834;DHT22;8017;50.812;4.934;2023-05-10T06:18:30;13.90;99.90
15834;DHT22;8017;50.812;4.934;2023-05-10T06:21:32;14.00;99.90
15834;DHT22;8017;50.812;4.934;2023-05-10T06:24:36;14.20;99.90
15834;DHT22;8017;50.812;4.934;2023-05-10T06:27:38;14.30;99.90
15834;DHT22;8017;50.812;4.934;2023-05-10T06:30:40;14.30;99.90
15834;DHT22;8017;50.812;4.934;2023-05-10T06:33:42;14.40;99.90
15834;DHT22;8017;50.812;4.934;2023-05-10T06:36:44;14.30;99.90
15834;DHT22;8017;50.812;4.934;2023-05-10T06:39:47;14.30;99.90
15834;DHT22;8017;50.812;4.934;2023-05-10T06:42:49;14.30;99.90
15834;DHT22;8017;50.812;4.934;2023-05-10T06:45:51;14.20;99.90
15834;DHT22;8017;50.812;4.934;2023-05-10T06:48:53;14.00;99.90
15834;DHT22;8017;50.812;4.934;2023-05-10T06:51:55;13.90;99.90
15834;DHT22;8017;50.812;4.934;2023-05-10T06:54:59;13.60;99.90
15834;DHT22;8017;50.812;4.934;2023-05-10T06:58:01;13.50;99.90
15834;DHT22;8017;50.812;4.934;2023-05-10T07:01:03;13.50;99.90
15834;DHT22;8017;50.812;4.934;2023-05-10T07:04:05;13.40;99.90
15834;DHT22;8017;50.812;4.934;2023-05-10T07:07:08;13.30;99.90
15834;DHT22;8017;50.812;4.934;2023-05-10T07:10:11;13.20;99.90
15834;DHT22;8017;50.812;4.934;2023-05-10T07:13:13;13.00;99.90
15834;DHT22;8017;50.812;4.934;2023-05-10T07:16:15;13.00;99.90
15834;DHT22;8017;50.812;4.934;2023-05-10T07:19:17;13.20;99.90
15834;DHT22;8017;50.812;4.934;2023-05-10T07:22:20;13.20;99.90
15834;DHT22;8017;50.812;4.934;2023-05-10T07:25:23;13.20;99.90
15834;DHT22;8017;50.812;4.934;2023-05-10T07:28:25;13.10;99.90
15834;DHT22;8017;50.812;4.934;2023-05-10T07:31:27;13.10;99.90
15834;DHT22;8017;50.812;4.934;2023-05-10T07:34:29;13.10;99.90
15834;DHT22;8017;50.812;4.934;2023-05-10T07:37:32;13.10;99.90
15834;DHT22;8017;50.812;4.934;2023-05-10T07:40:35;13.20;99.90
15834;DHT22;8017;50.812;4.934;2023-05-10T07:43:37;13.30;99.90
15834;DHT22;8017;50.812;4.934;2023-05-10T07:46:40;13.40;99.90
15834;DHT22;8017;50.812;4.934;2023-05-10T07:49:42;13.50;99.90
15834;DHT22;8017;50.812;4.934;2023-05-10T07:52:44;13.60;99.90
15834;DHT22;8017;50.812;4.934;2023-05-10T07:55:51;13.70;99.90
15834;DHT22;8017;50.812;4.934;2023-05-10T07:58:56;13.70;99.90
15834;DHT22;8017;50.812;4.934;2023-05-10T08:01:58;13.80;99.90
15834;DHT22;8017;50.812;4.934;2023-05-10T08:05:00;13.90;99.90
15834;DHT22;8017;50.812;4.934;2023-05-10T08:08:02;14.00;99.90
15834;DHT22;8017;50.812;4.934;2023-05-10T08:11:05;14.10;99.90
15834;DHT22;8017;50.812;4.934;2023-05-10T08:14:07;14.10;99.90
15834;DHT22;8017;50.812;4.934;2023-05-10T08:17:09;14.10;99.90
15834;DHT22;8017;50.812;4.934;2023-05-10T08:20:11;14.30;99.90
15834;DHT22;8017;50.812;4.934;2023-05-10T08:23:17;14.30;99.90
15834;DHT22;8017;50.812;4.934;2023-05-10T08:26:20;14.10;99.90
15834;DHT22;8017;50.812;4.934;2023-05-10T08:29:22;14.00;99.90
15834;DHT22;8017;50.812;4.934;2023-05-10T08:32:24;13.90;99.90
15834;DHT22;8017;50.812;4.934;2023-05-10T08:35:26;13.80;99.90
15834;DHT22;8017;50.812;4.934;2023-05-10T08:38:28;13.80;99.90
15834;DHT22;8017;50.812;4.934;2023-05-10T08:41:33;13.90;99.90
15834;DHT22;8017;50.812;4.934;2023-05-10T08:44:36;13.90;99.90
15834;DHT22;8017;50.812;4.934;2023-05-10T08:47:38;13.70;99.90
15834;DHT22;8017;50.812;4.934;2023-05-10T08:50:42;13.80;99.90
15834;DHT22;8017;50.812;4.934;2023-05-10T08:53:44;13.80;99.90
15834;DHT22;8017;50.812;4.934;2023-05-10T08:56:48;13.70;99.90
15834;DHT22;8017;50.812;4.934;2023-05-10T08:59:50;13.90;99.90
15834;DHT22;8017;50.812;4.934;2023-05-10T09:02:53;14.10;99.90
15834;DHT22;8017;50.812;4.934;2023-05-10T09:05:55;14.30;99.90
15834;DHT22;8017;50.812;4.934;2023-05-10T09:08:58;14.40;99.90
15834;DHT22;8017;50.812;4.934;2023-05-10T09:12:01;14.50;99.90
15834;DHT22;8017;50.812;4.934;2023-05-10T09:15:04;14.60;99.90
15834;DHT22;8017;50.812;4.934;2023-05-10T09:18:07;14.50;99.90
15834;DHT22;8017;50.812;4.934;2023-05-10T09:21:10;14.50;99.90
15834;DHT22;8017;50.812;4.934;2023-05-10T09:24:12;14.40;99.90
15834;DHT22;8017;50.812;4.934;2023-05-10T09:27:15;14.40;99.90
15834;DHT22;8017;50.812;4.934;2023-05-10T09:30:23;14.50;99.90
15834;DHT22;8017;50.812;4.934;2023-05-10T09:33:26;14.60;99.90
15834;DHT22;8017;50.812;4.934;2023-05-10T09:36:28;14.60;99.90
15834;DHT22;8017;50.812;4.934;2023-05-10T09:39:30;14.60;99.90
15834;DHT22;8017;50.812;4.934;2023-05-10T09:42:35;14.60;99.90
15834;DHT22;8017;50.812;4.934;2023-05-10T09:45:37;14.60;99.90
15834;DHT22;8017;50.812;4.934;2023-05-10T09:48:42;14.70;99.90
15834;DHT22;8017;50.812;4.934;2023-05-10T09:51:44;14.50;99.90
15834;DHT22;8017;50.812;4.934;2023-05-10T09:54:53;14.50;99.90
15834;DHT22;8017;50.812;4.934;2023-05-10T09:58:01;14.50;99.90
15834;DHT22;8017;50.812;4.934;2023-05-10T10:01:04;14.60;99.90
15834;DHT22;8017;50.812;4.934;2023-05-10T10:04:12;14.70;99.90
15834;DHT22;8017;50.812;4.934;2023-05-10T10:07:14;14.90;99.90
15834;DHT22;8017;50.812;4.934;2023-05-10T10:10:16;14.70;99.90
15834;DHT22;8017;50.812;4.934;2023-05-10T10:13:19;14.80;99.90
15834;DHT22;8017;50.812;4.934;2023-05-10T10:16:22;14.90;99.90
15834;DHT22;8017;50.812;4.934;2023-05-10T10:19:24;14.90;99.90
15834;DHT22;8017;50.812;4.934;2023-05-10T10:22:27;14.90;99.90
15834;DHT22;8017;50.812;4.934;2023-05-10T10:25:29;14.90;99.90
15834;DHT22;8017;50.812;4.934;2023-05-10T10:28:39;14.70;99.90
15834;DHT22;8017;50.812;4.934;2023-05-10T10:31:47;14.60;99.90
15834;DHT22;8017;50.812;4.934;2023-05-10T10:34:51;14.60;99.90
15834;DHT22;8017;50.812;4.934;2023-05-10T10:37:53;14.70;99.90
15834;DHT22;8017;50.812;4.934;2023-05-10T10:41:02;14.80;99.90
15834;DHT22;8017;50.812;4.934;2023-05-10T10:44:39;15.00;99.90
15834;DHT22;8017;50.812;4.934;2023-05-10T10:47:42;15.10;99.90
15834;DHT22;8017;50.812;4.934;2023-05-10T10:50:44;15.00;99.90
15834;DHT22;8017;50.812;4.934;2023-05-10T10:53:48;15.40;99.90
15834;DHT22;8017;50.812;4.934;2023-05-10T10:57:10;15.80;99.90
15834;DHT22;8017;50.812;4.934;2023-05-10T11:00:36;16.20;99.90
15834;DHT22;8017;50.812;4.934;2023-05-10T11:03:38;16.70;99.90
15834;DHT22;8017;50.812;4.934;2023-05-10T11:06:40;17.00;99.90
15834;DHT22;8017;50.812;4.934;2023-05-10T11:09:43;16.90;99.90
15834;DHT22;8017;50.812;4.934;2023-05-10T11:12:52;17.10;99.90
15834;DHT22;8017;50.812;4.934;2023-05-10T11:15:56;17.30;99.90
15834;DHT22;8017;50.812;4.934;2023-05-10T11:19:01;17.20;99.90
15834;DHT22;8017;50.812;4.934;2023-05-10T11:22:13;17.10;99.90
15834;DHT22;8017;50.812;4.934;2023-05-10T11:25:15;16.80;99.90
15834;DHT22;8017;50.812;4.934;2023-05-10T11:28:18;16.70;99.90
15834;DHT22;8017;50.812;4.934;2023-05-10T11:31:22;16.60;99.90
15834;DHT22;8017;50.812;4.934;2023-05-10T11:34:28;16.70;99.90
15834;DHT22;8017;50.812;4.934;2023-05-10T11:37:30;16.60;99.90
15834;DHT22;8017;50.812;4.934;2023-05-10T11:40:35;16.60;99.90
15834;DHT22;8017;50.812;4.934;2023-05-10T11:43:38;16.50;99.90
15834;DHT22;8017;50.812;4.934;2023-05-10T11:46:41;16.50;99.90
15834;DHT22;8017;50.812;4.934;2023-05-10T11:49:44;16.60;99.90
15834;DHT22;8017;50.812;4.934;2023-05-10T11:52:50;16.60;99.90
15834;DHT22;8017;50.812;4.934;2023-05-10T11:55:52;16.90;99.90
15834;DHT22;8017;50.812;4.934;2023-05-10T11:58:55;16.90;99.90
15834;DHT22;8017;50.812;4.934;2023-05-10T12:01:59;17.10;99.90
15834;DHT22;8017;50.812;4.934;2023-05-10T12:05:04;17.10;99.90
15834;DHT22;8017;50.812;4.934;2023-05-10T12:08:13;17.00;99.90
15834;DHT22;8017;50.812;4.934;2023-05-10T12:11:15;17.30;99.90
15834;DHT22;8017;50.812;4.934;2023-05-10T12:14:18;17.40;99.90
15834;DHT22;8017;50.812;4.934;2023-05-10T12:17:27;17.30;99.90
15834;DHT22;8017;50.812;4.934;2023-05-10T12:20:29;17.20;99.90
15834;DHT22;8017;50.812;4.934;2023-05-10T12:23:31;17.10;99.90
15834;DHT22;8017;50.812;4.934;2023-05-10T12:26:33;17.20;99.90
15834;DHT22;8017;50.812;4.934;2023-05-10T12:29:36;17.20;99.90
15834;DHT22;8017;50.812;4.934;2023-05-10T12:32:43;17.30;99.90
15834;DHT22;8017;50.812;4.934;2023-05-10T12:35:47;17.40;99.90
15834;DHT22;8017;50.812;4.934;2023-05-10T12:38:49;17.60;99.90
15834;DHT22;8017;50.812;4.934;2023-05-10T12:41:53;18.00;99.90
15834;DHT22;8017;50.812;4.934;2023-05-10T12:44:55;18.50;99.90
15834;DHT22;8017;50.812;4.934;2023-05-10T12:47:59;18.40;99.90
15834;DHT22;8017;50.812;4.934;2023-05-10T12:51:01;18.20;99.90
15834;DHT22;8017;50.812;4.934;2023-05-10T12:54:03;18.60;99.90
15834;DHT22;8017;50.812;4.934;2023-05-10T12:57:05;18.50;99.90
15834;DHT22;8017;50.812;4.934;2023-05-10T13:00:08;18.30;99.90
15834;DHT22;8017;50.812;4.934;2023-05-10T13:03:11;18.60;99.90
15834;DHT22;8017;50.812;4.934;2023-05-10T13:06:14;18.70;99.90
15834;DHT22;8017;50.812;4.934;2023-05-10T13:09:15;18.60;99.90
15834;DHT22;8017;50.812;4.934;2023-05-10T13:12:17;18.50;99.90
15834;DHT22;8017;50.812;4.934;2023-05-10T13:15:19;18.40;99.90
15834;DHT22;8017;50.812;4.934;2023-05-10T13:18:23;18.40;99.90
15834;DHT22;8017;50.812;4.934;2023-05-10T13:21:26;18.60;99.90
15834;DHT22;8017;50.812;4.934;2023-05-10T13:24:28;18.60;99.90
15834;DHT22;8017;50.812;4.934;2023-05-10T13:27:30;18.50;99.90
15834;DHT22;8017;50.812;4.934;2023-05-10T13:30:32;18.00;99.90
15834;DHT22;8017;50.812;4.934;2023-05-10T13:33:35;18.30;99.90
15834;DHT22;8017;50.812;4.934;2023-05-10T13:36:37;18.10;99.90
15834;DHT22;8017;50.812;4.934;2023-05-10T13:39:39;18.20;99.90
15834;DHT22;8017;50.812;4.934;2023-05-10T13:42:42;18.50;99.90
15834;DHT22;8017;50.812;4.934;2023-05-10T13:45:44;18.60;99.90
15834;DHT22;8017;50.812;4.934;2023-05-10T13:48:47;18.60;99.90
15834;DHT22;8017;50.812;4.934;2023-05-10T13:51:49;18.60;99.90
15834;DHT22;8017;50.812;4.934;2023-05-10T13:54:51;18.70;99.90
15834;DHT22;8017;50.812;4.934;2023-05-10T13:57:55;19.00;99.90
15834;DHT22;8017;50.812;4.934;2023-05-10T14:00:58;18.90;99.90
15834;DHT22;8017;50.812;4.934;2023-05-10T14:04:02;19.20;99.90
15834;DHT22;8017;50.812;4.934;2023-05-10T14:07:04;19.40;99.90
15834;DHT22;8017;50.812;4.934;2023-05-10T14:10:06;19.30;99.90
15834;DHT22;8017;50.812;4.934;2023-05-10T14:13:08;19.30;99.90
15834;DHT22;8017;50.812;4.934;2023-05-10T14:16:10;18.80;99.90
15834;DHT22;8017;50.812;4.934;2023-05-10T14:19:14;18.70;99.90
15834;DHT22;8017;50.812;4.934;2023-05-10T14:22:16;18.60;99.90
15834;DHT22;8017;50.812;4.934;2023-05-10T14:25:18;19.00;99.90
15834;DHT22;8017;50.812;4.934;2023-05-10T14:28:20;19.10;99.90
15834;DHT22;8017;50.812;4.934;2023-05-10T14:31:24;19.20;99.90
15834;DHT22;8017;50.812;4.934;2023-05-10T14:34:27;19.30;99.90
15834;DHT22;8017;50.812;4.934;2023-05-10T14:37:29;19.50;99.90
15834;DHT22;8017;50.812;4.934;2023-05-10T14:40:31;19.50;99.90
15834;DHT22;8017;50.812;4.934;2023-05-10T14:43:33;19.60;99.90
15834;DHT22;8017;50.812;4.934;2023-05-10T14:46:35;19.50;99.90
15834;DHT22;8017;50.812;4.934;2023-05-10T14:49:40;19.60;99.90
15834;DHT22;8017;50.812;4.934;2023-05-10T14:52:42;19.60;99.90
15834;DHT22;8017;50.812;4.934;2023-05-10T14:55:44;19.50;99.90
15834;DHT22;8017;50.812;4.934;2023-05-10T14:58:46;19.40;99.90
15834;DHT22;8017;50.812;4.934;2023-05-10T15:01:48;19.20;99.90
15834;DHT22;8017;50.812;4.934;2023-05-10T15:04:51;19.20;99.90
15834;DHT22;8017;50.812;4.934;2023-05-10T15:07:53;19.00;99.90
15834;DHT22;8017;50.812;4.934;2023-05-10T15:10:55;19.10;99.90
15834;DHT22;8017;50.812;4.934;2023-05-10T15:13:57;19.20;99.90
15834;DHT22;8017;50.812;4.934;2023-05-10T15:16:59;19.40;99.90
15834;DHT22;8017;50.812;4.934;2023-05-10T15:20:03;19.40;99.90
15834;DHT22;8017;50.812;4.934;2023-05-10T15:23:05;19.60;99.90
15834;DHT22;8017;50.812;4.934;2023-05-10T15:26:07;19.70;99.90
15834;DHT22;8017;50.812;4.934;2023-05-10T15:29:08;19.90;99.90
15834;DHT22;8017;50.812;4.934;2023-05-10T15:32:10;19.70;99.90
15834;DHT22;8017;50.812;4.934;2023-05-10T15:35:14;19.70;99.90
15834;DHT22;8017;50.812;4.934;2023-05-10T15:38:17;20.10;99.90
15834;DHT22;8017;50.812;4.934;2023-05-10T15:41:19;20.20;99.90
15834;DHT22;8017;50.812;4.934;2023-05-10T15:44:21;19.60;99.90
15834;DHT22;8017;50.812;4.934;2023-05-10T15:47:23;19.70;99.90
15834;DHT22;8017;50.812;4.934;2023-05-10T15:50:27;20.10;99.90
15834;DHT22;8017;50.812;4.934;2023-05-10T15:53:29;20.40;99.90
15834;DHT22;8017;50.812;4.934;2023-05-10T15:56:31;20.90;99.90
15834;DHT22;8017;50.812;4.934;2023-05-10T15:59:33;21.10;99.90
15834;DHT22;8017;50.812;4.934;2023-05-10T16:02:36;21.90;99.90
15834;DHT22;8017;50.812;4.934;2023-05-10T16:05:39;22.40;99.90
15834;DHT22;8017;50.812;4.934;2023-05-10T16:08:41;22.00;99.90
15834;DHT22;8017;50.812;4.934;2023-05-10T16:11:43;21.80;99.90
15834;DHT22;8017;50.812;4.934;2023-05-10T16:14:45;21.90;99.90
15834;DHT22;8017;50.812;4.934;2023-05-10T16:17:47;22.30;99.90
15834;DHT22;8017;50.812;4.934;2023-05-10T16:20:51;22.80;99.90
15834;DHT22;8017;50.812;4.934;2023-05-10T16:23:53;22.00;99.90
15834;DHT22;8017;50.812;4.934;2023-05-10T16:26:55;21.00;99.90
15834;DHT22;8017;50.812;4.934;2023-05-10T16:29:57;19.50;99.90
15834;DHT22;8017;50.812;4.934;2023-05-10T16:32:59;18.40;99.90
15834;DHT22;8017;50.812;4.934;2023-05-10T16:36:03;17.90;99.90
15834;DHT22;8017;50.812;4.934;2023-05-10T16:39:05;17.30;99.90
15834;DHT22;8017;50.812;4.934;2023-05-10T16:42:08;17.00;99.90
15834;DHT22;8017;50.812;4.934;2023-05-10T16:45:11;16.70;99.90
15834;DHT22;8017;50.812;4.934;2023-05-10T16:48:13;16.60;99.90
15834;DHT22;8017;50.812;4.934;2023-05-10T16:51:16;16.30;99.90
15834;DHT22;8017;50.812;4.934;2023-05-10T16:54:18;16.30;99.90
15834;DHT22;8017;50.812;4.934;2023-05-10T16:57:21;16.10;99.90
15834;DHT22;8017;50.812;4.934;2023-05-10T17:00:23;16.10;99.90
15834;DHT22;8017;50.812;4.934;2023-05-10T17:03:25;16.20;99.90
15834;DHT22;8017;50.812;4.934;2023-05-10T17:06:28;16.10;99.90
15834;DHT22;8017;50.812;4.934;2023-05-10T17:09:32;15.90;99.90
15834;DHT22;8017;50.812;4.934;2023-05-10T17:12:34;15.90;99.90
15834;DHT22;8017;50.812;4.934;2023-05-10T17:15:36;15.80;99.90
15834;DHT22;8017;50.812;4.934;2023-05-10T17:18:39;16.00;99.90
15834;DHT22;8017;50.812;4.934;2023-05-10T17:21:42;16.10;99.90
15834;DHT22;8017;50.812;4.934;2023-05-10T17:24:44;16.20;99.90
15834;DHT22;8017;50.812;4.934;2023-05-10T17:27:46;16.90;99.90
15834;DHT22;8017;50.812;4.934;2023-05-10T17:30:54;16.90;99.90
15834;DHT22;8017;50.812;4.934;2023-05-10T17:33:57;16.70;99.90
15834;DHT22;8017;50.812;4.934;2023-05-10T17:37:00;16.70;99.90
15834;DHT22;8017;50.812;4.934;2023-05-10T17:40:02;16.50;99.90
15834;DHT22;8017;50.812;4.934;2023-05-10T17:43:06;16.50;99.90
15834;DHT22;8017;50.812;4.934;2023-05-10T17:46:08;16.50;99.90
15834;DHT22;8017;50.812;4.934;2023-05-10T17:49:10;16.40;99.90
15834;DHT22;8017;50.812;4.934;2023-05-10T17:52:14;16.30;99.90
15834;DHT22;8017;50.812;4.934;2023-05-10T17:55:16;16.20;99.90
15834;DHT22;8017;50.812;4.934;2023-05-10T17:58:18;16.00;99.90
15834;DHT22;8017;50.812;4.934;2023-05-10T18:01:20;15.80;99.90
15834;DHT22;8017;50.812;4.934;2023-05-10T18:04:22;15.80;99.90
15834;DHT22;8017;50.812;4.934;2023-05-10T18:07:29;15.60;99.90
15834;DHT22;8017;50.812;4.934;2023-05-10T18:10:41;15.60;99.90
15834;DHT22;8017;50.812;4.934;2023-05-10T18:13:52;15.50;99.90
15834;DHT22;8017;50.812;4.934;2023-05-10T18:16:59;15.40;99.90
15834;DHT22;8017;50.812;4.934;2023-05-10T18:20:08;15.30;99.90
15834;DHT22;8017;50.812;4.934;2023-05-10T18:23:15;15.20;99.90
15834;DHT22;8017;50.812;4.934;2023-05-10T18:26:22;15.20;99.90
15834;DHT22;8017;50.812;4.934;2023-05-10T18:29:36;15.10;99.90
15834;DHT22;8017;50.812;4.934;2023-05-10T18:32:46;15.00;99.90
15834;DHT22;8017;50.812;4.934;2023-05-10T18:35:53;15.00;99.90
15834;DHT22;8017;50.812;4.934;2023-05-10T18:39:08;14.80;99.90
15834;DHT22;8017;50.812;4.934;2023-05-10T18:42:15;14.70;99.90
15834;DHT22;8017;50.812;4.934;2023-05-10T18:45:20;14.60;99.90
15834;DHT22;8017;50.812;4.934;2023-05-10T18:48:23;14.50;99.90
15834;DHT22;8017;50.812;4.934;2023-05-10T18:51:25;14.50;99.90
15834;DHT22;8017;50.812;4.934;2023-05-10T18:54:30;14.50;99.90
15834;DHT22;8017;50.812;4.934;2023-05-10T18:57:32;14.40;99.90
15834;DHT22;8017;50.812;4.934;2023-05-10T19:00:40;14.40;99.90
15834;DHT22;8017;50.812;4.934;2023-05-10T19:03:42;14.40;99.90
15834;DHT22;8017;50.812;4.934;2023-05-10T19:06:44;14.40;99.90
15834;DHT22;8017;50.812;4.934;2023-05-10T19:09:48;14.40;99.90
15834;DHT22;8017;50.812;4.934;2023-05-10T19:12:50;14.50;99.90
15834;DHT22;8017;50.812;4.934;2023-05-10T19:16:01;14.50;99.90
15834;DHT22;8017;50.812;4.934;2023-05-10T19:19:03;14.60;99.90
15834;DHT22;8017;50.812;4.934;2023-05-10T19:22:05;14.60;99.90
15834;DHT22;8017;50.812;4.934;2023-05-10T19:25:08;14.60;99.90
15834;DHT22;8017;50.812;4.934;2023-05-10T19:28:12;14.60;99.90
15834;DHT22;8017;50.812;4.934;2023-05-10T19:31:14;14.60;99.90
15834;DHT22;8017;50.812;4.934;2023-05-10T19:34:16;14.60;99.90
15834;DHT22;8017;50.812;4.934;2023-05-10T19:37:18;14.60;99.90
15834;DHT22;8017;50.812;4.934;2023-05-10T19:40:22;14.70;99.90